»·PEaware :: N360BG KGEG-KBFI

N360BG :: KGEG-KBFI

FLIGHT INFORMATION

Flight Status: Arrived
Operator: Privately registered:
United States
More flights under this callsign
Pilot: Brandon G. (13)
Aircraft: Unknown
(EPIC)
More flights by this aircraft type
Origin: KGEG Spokane Intl
United States
Destination: KBFI Boeing Field/King Co Intl
United States
More flights between these airports :: More routes between these airports
Route: TEMPL GLASR1
File this flight plan on PilotEdge
Remarks:
Altitude:
(Current/Filed)
22,000ft
Speed:
(Current/Filed)
325kts
Departed: 11-Jan-18 10:01 PM
Arrived: 11-Jan-18 10:59 PM
Distance/Time
Traveled:
193nm/0:58
Distance/Time
To Go:
Arrived

Flight Plot

Page will automatically refresh every two minutes.

Flight plan parsing failed; only flown route is shown


Map Options




Map Legend


Flown Route
Filed Route
Departure Airport
Arrival Airport
Navaid (VOR, NDB)
Fix

Horizontal Profiles

Position Reports

Time Latitude Longitude Heading Altitude Ground
Speed
11-Jan-18 21:26 47.620742 -117.526797 270 2358ft 0kts
11-Jan-18 21:27 47.620742 -117.526797 270 2358ft 0kts
11-Jan-18 21:28 47.620742 -117.526797 270 2358ft 0kts
11-Jan-18 21:29 47.620742 -117.526797 270 2358ft 0kts
11-Jan-18 21:30 47.620742 -117.526797 270 2358ft 0kts
11-Jan-18 21:31 47.620742 -117.526797 270 2358ft 0kts
11-Jan-18 21:32 47.620742 -117.526797 269 2358ft 0kts
11-Jan-18 21:33 47.620742 -117.526798 269 2358ft 0kts
11-Jan-18 21:34 47.620742 -117.526798 269 2358ft 0kts
11-Jan-18 21:35 47.620742 -117.526798 269 2358ft 0kts
11-Jan-18 21:36 47.620742 -117.526798 269 2358ft 0kts
11-Jan-18 21:37 47.620742 -117.526798 269 2358ft 0kts
11-Jan-18 21:38 47.620742 -117.526798 269 2358ft 0kts
11-Jan-18 21:39 47.620742 -117.526798 269 2358ft 0kts
11-Jan-18 21:40 47.620951 -117.527116 330 2358ft 0kts
11-Jan-18 21:41 47.620781 -117.527491 0 2358ft 0kts
11-Jan-18 21:42 47.620781 -117.527491 0 2358ft 0kts
11-Jan-18 21:43 47.620781 -117.527491 0 2358ft 0kts
11-Jan-18 21:44 47.620781 -117.527491 0 2358ft 0kts
11-Jan-18 21:45 47.620781 -117.527491 0 2358ft 0kts
11-Jan-18 21:46 47.620781 -117.527491 0 2358ft 0kts
11-Jan-18 21:47 47.620781 -117.527491 0 2358ft 0kts
11-Jan-18 21:48 47.620781 -117.527491 0 2358ft 0kts
11-Jan-18 21:49 47.620781 -117.527491 0 2358ft 0kts
11-Jan-18 21:50 47.620781 -117.527491 0 2358ft 0kts
11-Jan-18 21:51 47.620781 -117.527491 0 2358ft 0kts
11-Jan-18 21:52 47.620781 -117.527491 0 2358ft 0kts
11-Jan-18 21:53 47.621051 -117.528410 278 2357ft 0kts
11-Jan-18 21:54 47.621051 -117.528410 278 2357ft 0kts
11-Jan-18 21:55 47.621051 -117.528410 278 2357ft 0kts
11-Jan-18 21:56 47.621051 -117.528410 278 2357ft 0kts
11-Jan-18 21:57 47.621051 -117.528410 278 2357ft 0kts
11-Jan-18 21:58 47.621051 -117.528410 278 2357ft 0kts
11-Jan-18 21:59 47.621051 -117.528410 278 2357ft 0kts
11-Jan-18 22:00 47.621051 -117.528410 278 2357ft 0kts
11-Jan-18 22:01 47.621051 -117.528410 278 2357ft 0kts
11-Jan-18 22:02 47.621158 -117.528921 319 2357ft 0kts
11-Jan-18 22:03 47.623181 -117.526882 44 2353ft 16kts
11-Jan-18 22:04 47.626498 -117.521901 46 2343ft 12kts
11-Jan-18 22:05 47.629956 -117.516949 353 2324ft 13kts
11-Jan-18 22:06 47.630491 -117.517417 314 2323ft 0kts
11-Jan-18 22:07 47.624818 -117.527487 219 2569ft 122kts
11-Jan-18 22:08 47.586839 -117.572114 218 4798ft 195kts
11-Jan-18 22:09 47.573933 -117.641493 280 7274ft 193kts
11-Jan-18 22:10 47.581009 -117.715419 279 9399ft 196kts
11-Jan-18 22:11 47.588289 -117.793840 278 11645ft 196kts
11-Jan-18 22:12 47.595394 -117.872062 278 13857ft 199kts
11-Jan-18 22:13 47.601614 -117.941439 278 16770ft 167kts
11-Jan-18 22:14 47.607752 -118.009988 278 18781ft 172kts
11-Jan-18 22:15 47.614000 -118.080148 278 20538ft 176kts
11-Jan-18 22:16 47.620353 -118.151950 278 21930ft 186kts
11-Jan-18 22:17 47.627822 -118.236665 278 21963ft 227kts
11-Jan-18 22:18 47.636017 -118.330798 278 21961ft 241kts
11-Jan-18 22:19 47.644447 -118.428744 278 21984ft 244kts
11-Jan-18 22:20 47.652872 -118.527654 278 22013ft 253kts
11-Jan-18 22:21 47.661839 -118.634210 278 22023ft 273kts
11-Jan-18 22:22 47.670508 -118.738329 277 22028ft 280kts
11-Jan-18 22:23 47.679830 -118.851561 277 22027ft 282kts
11-Jan-18 22:24 47.688994 -118.964334 277 22026ft 282kts
11-Jan-18 22:25 47.697815 -119.074147 277 22025ft 282kts
11-Jan-18 22:26 47.706782 -119.187243 278 22019ft 281kts
11-Jan-18 22:27 47.715645 -119.300394 278 22014ft 281kts
11-Jan-18 22:28 47.724348 -119.413079 278 22013ft 281kts
11-Jan-18 22:29 47.733110 -119.525355 278 22012ft 281kts
11-Jan-18 22:30 47.742083 -119.638349 278 22012ft 281kts
11-Jan-18 22:31 47.750300 -119.742897 277 22018ft 282kts
11-Jan-18 22:32 47.758971 -119.854602 277 22024ft 282kts
11-Jan-18 22:33 47.767533 -119.966352 277 22031ft 281kts
11-Jan-18 22:34 47.775759 -120.075111 277 22034ft 281kts
11-Jan-18 22:35 47.784024 -120.185798 277 22033ft 281kts
11-Jan-18 22:36 47.792102 -120.295448 277 22032ft 281kts
11-Jan-18 22:37 47.800078 -120.405204 277 22032ft 281kts
11-Jan-18 22:38 47.808015 -120.515898 277 22031ft 281kts
11-Jan-18 22:39 47.815778 -120.625625 277 22030ft 280kts
11-Jan-18 22:40 47.821401 -120.706086 277 22037ft 281kts
11-Jan-18 22:41 47.828606 -120.810512 276 22035ft 281kts
11-Jan-18 22:42 47.836396 -120.924749 276 20899ft 305kts
11-Jan-18 22:43 47.844621 -121.047052 276 19373ft 312kts
11-Jan-18 22:44 47.852809 -121.170939 275 17831ft 305kts
11-Jan-18 22:45 47.860644 -121.291928 275 16264ft 303kts
11-Jan-18 22:46 47.868432 -121.414175 275 14743ft 305kts
11-Jan-18 22:47 47.876043 -121.535439 275 13289ft 300kts
11-Jan-18 22:48 47.883263 -121.652639 274 12125ft 299kts
11-Jan-18 22:49 47.848840 -121.748584 228 10964ft 273kts
11-Jan-18 22:50 47.796680 -121.824420 225 9599ft 271kts
11-Jan-18 22:51 47.749408 -121.905057 260 8217ft 274kts
11-Jan-18 22:52 47.754385 -122.012691 275 6831ft 254kts
11-Jan-18 22:53 47.758489 -122.113526 275 5450ft 247kts
11-Jan-18 22:54 47.763195 -122.212641 275 4072ft 238kts
11-Jan-18 22:55 47.767795 -122.301110 275 3010ft 200kts
11-Jan-18 22:56 47.756562 -122.368841 235 2179ft 180kts
11-Jan-18 22:57 47.731228 -122.424421 216 2156ft 148kts
11-Jan-18 22:58 47.694614 -122.441419 171 2145ft 134kts
11-Jan-18 22:59 47.661537 -122.414341 150 2147ft 138kts
11-Jan-18 23:00 47.628357 -122.385927 151 1981ft 146kts
11-Jan-18 23:01 47.597947 -122.360069 150 1323ft 126kts
11-Jan-18 23:02 47.569565 -122.335885 149 663ft 109kts
11-Jan-18 23:03 47.546736 -122.316674 148 273ft 89kts
11-Jan-18 23:04 47.531226 -122.303554 150 16ft 44kts
11-Jan-18 23:05 47.527727 -122.302076 150 14ft 16kts
11-Jan-18 23:06 47.525835 -122.301123 57 14ft 0kts
11-Jan-18 23:07 47.525835 -122.301123 57 14ft 0kts
11-Jan-18 23:08 47.525835 -122.301123 57 14ft 0kts
11-Jan-18 23:09 47.525835 -122.301123 57 14ft 0kts
11-Jan-18 23:10 47.525835 -122.301123 57 14ft 0kts
11-Jan-18 23:11 47.525661 -122.301602 239 14ft 0kts

Navigation Log

Ident Type
Flight plan parsing failed, navigation log unavailable